WetterOnline ( https://www.wetteronline.de )

Wetter aktuell Delbrück

Aktuelles Wetter: Bad Lippspringe (158m)

6-stündlich | Neueste Meldungen
Ortszeit Temperatur Wetter
Di, 28.05. 2:00 12.7° C bewölkt
Mo, 27.05. 20:00 16.2° C bewölkt
Mo, 27.05. 14:00 21.6° C wolkig
Mo, 27.05. 8:00 15.5° C bewölkt
Mo, 27.05. 2:00 14.5° C bewölkt
So, 26.05. 20:00 18.8° C leichter Regen
So, 26.05. 14:00 23.1° C wolkig
So, 26.05. 8:00 15.3° C leicht bewölkt
Ortszeit Temperatur Wetter
Di, 28.05. 4:30 11.3° C bewölkt
Di, 28.05. 4:20 11.3° C bewölkt
Di, 28.05. 4:10 11.3° C bewölkt
Di, 28.05. 4:00 11.4° C Sprühregen
Di, 28.05. 3:50 11.4° C Sprühregen
Di, 28.05. 3:40 11.9° C leichter Regen
Di, 28.05. 3:30 12.1° C bedeckt
Di, 28.05. 3:00 12.4° C bewölkt
Di, 28.05. 2:30 12.5° C bedeckt
Di, 28.05. 2:00 12.7° C bewölkt
Ortszeit Relative Feuchte Sichtweite
Di, 28.05. 2:00 95% 14 km
Mo, 27.05. 20:00 83% 40 km
Mo, 27.05. 14:00 57% 45 km
Mo, 27.05. 8:00 82% 55 km
Mo, 27.05. 2:00 84% 65 km
So, 26.05. 20:00 60% 45 km
So, 26.05. 14:00 51% >70 km
So, 26.05. 8:00 81% 30 km
Ortszeit Relative Feuchte Sichtweite
Di, 28.05. 4:30 96% 18 km
Di, 28.05. 4:20 96% -
Di, 28.05. 4:10 95% -
Di, 28.05. 4:00 94% 18 km
Di, 28.05. 3:50 94% -
Di, 28.05. 3:40 94% -
Di, 28.05. 3:30 94% 23 km
Di, 28.05. 3:00 97% 11 km
Di, 28.05. 2:30 97% 13 km
Di, 28.05. 2:00 95% 14 km
Ortszeit Niederschlagsmenge Niederschlagsart
Di, 28.05. 2:00 4 l/m2 in 6 Std. Regen
Mo, 27.05. 20:00 0.7 l/m2 in 12 Std. Regen
Mo, 27.05. 14:00 0.0 l/m2 in 6 Std. -
Mo, 27.05. 8:00 0.1 l/m2 in 12 Std. -
Mo, 27.05. 2:00 0.1 l/m2 in 6 Std. Regen
So, 26.05. 20:00 0.2 l/m2 in 12 Std. Regen
So, 26.05. 14:00 0.0 l/m2 in 6 Std. -
So, 26.05. 8:00 0.0 l/m2 in 12 Std. -
Ortszeit Niederschlagsmenge Niederschlagsart
Di, 28.05. 4:30 <0.05 l/m2 in 30 Min Schnee
Di, 28.05. 4:20 keine Meldung -
Di, 28.05. 4:10 keine Meldung -
Di, 28.05. 4:00 0.3 l/m2 in 1 Std. Regen
Di, 28.05. 3:50 keine Meldung -
Di, 28.05. 3:40 keine Meldung -
Di, 28.05. 3:30 0.2 l/m2 in 30 Min Schneeregen
Di, 28.05. 3:00 0.0 l/m2 in 1 Std. -
Di, 28.05. 2:30 0.0 l/m2 in 30 Min -
Di, 28.05. 2:00 0.0 l/m2 in 1 Std. Regen
Ortszeit Stärke Spitze Richtung
km/h Bft. km/h Grad Sektor
Di, 28.05. 2:00 11 2 24 290° W
Mo, 27.05. 20:00 6 1 30 60° NO
Mo, 27.05. 14:00 11 2 29 280° W
Mo, 27.05. 8:00 2 1 7 120° SO
Mo, 27.05. 2:00 6 1 22 160° S
So, 26.05. 20:00 11 2 36 220° SW
So, 26.05. 14:00 11 2 26 180° S
So, 26.05. 8:00 2 1 7 300° NW
Ortszeit Stärke Spitze Richtung
km/h Bft. km/h Grad Sektor
Di, 28.05. 4:30 7 2 18 270° W
Di, 28.05. 4:20 7 2 - 270° W
Di, 28.05. 4:10 7 2 - 270° W
Di, 28.05. 4:00 14 3 22 280° W
Di, 28.05. 3:50 14 3 - 280° W
Di, 28.05. 3:40 11 2 - 280° W
Di, 28.05. 3:30 11 2 14 280° W
Di, 28.05. 3:00 7 2 14 270° W
Di, 28.05. 2:30 7 2 14 300° NW
Di, 28.05. 2:00 11 2 19 290° W
Ortszeit Untergrenze Bedeckung Gattung
total tief tief mittel hoch
Di, 28.05. 2:00 150 m 7/8 7/8 - - -
Mo, 27.05. 20:00 1500 m 8/8 7/8 - - -
Mo, 27.05. 14:00 1110 m 6/8 4/8 - - -
Mo, 27.05. 8:00 2700 m 8/8 5/8 - - -
Mo, 27.05. 2:00 2700 m 8/8 5/8 - - -
So, 26.05. 20:00 1800 m 8/8 8/8 - - -
So, 26.05. 14:00 1500 m 7/8 2/8 - - -
So, 26.05. 8:00 8700 m 6/8 0/8 - - -
Ortszeit Bedeckungsgrad in Achtel und Wolkenuntergrenze
Di, 28.05. 4:30 3(330m) 7(570m)
Di, 28.05. 4:20 3(330m) 7(570m)
Di, 28.05. 4:10 7
Di, 28.05. 4:00 2(360m) 7(540m) 8(780m)
Di, 28.05. 3:50 2(360m) 7(540m) 8(780m)
Di, 28.05. 3:40 8
Di, 28.05. 3:30 2(510m) 3(750m) 8(900m)
Di, 28.05. 3:00 5(150m) 7(360m) 7(840m)
Di, 28.05. 2:30 2(150m) 7(330m) 8(780m)
Di, 28.05. 2:00 2(150m) 7(300m) 7(750m)
Ortszeit Luftdruck NN (hPa) Tendenz (hPa in 3 Std.)
Di, 28.05. 2:00 1017 + 0,4
Mo, 27.05. 20:00 1015 - 0,4
Mo, 27.05. 14:00 1016 - 0,7
Mo, 27.05. 8:00 1017 + 0,6
Mo, 27.05. 2:00 1017 + 0,9
So, 26.05. 20:00 1015 + 0,1
So, 26.05. 14:00 1016 - 1,1
So, 26.05. 8:00 1018 - 0,1
Ortszeit Luftdruck NN (hPa) Tendenz (hPa in 3 Std.)
Di, 28.05. 4:30 1017 + 0,5
Di, 28.05. 4:20 1017 keine Meldung
Di, 28.05. 4:10 1017 keine Meldung
Di, 28.05. 4:00 1017 + 0,7
Di, 28.05. 3:50 1017 keine Meldung
Di, 28.05. 3:40 1017 keine Meldung
Di, 28.05. 3:30 1017 + 0,5
Di, 28.05. 3:00 1017 + 0,3
Di, 28.05. 2:30 1017 + 0,4
Di, 28.05. 2:00 1017 + 0,4
Ortszeit Schneehöhe (cm)
Di, 28.05. 2:00 0
Mo, 27.05. 20:00 0
Mo, 27.05. 14:00 0
Mo, 27.05. 8:00 0
Mo, 27.05. 2:00 0
So, 26.05. 20:00 0
So, 26.05. 14:00 0
So, 26.05. 8:00 0
Ortszeit Schneehöhe (cm)
Di, 28.05. 4:30 0
Di, 28.05. 4:20 0
Di, 28.05. 4:10 -
Di, 28.05. 4:00 0
Di, 28.05. 3:50 0
Di, 28.05. 3:40 -
Di, 28.05. 3:30 0
Di, 28.05. 3:00 0
Di, 28.05. 2:30 0
Di, 28.05. 2:00 0
Link zu dieser Seite / Seite empfehlen

Das Wetter in ...